Terminal Aerodrome Forecast
Issued by NWS

Home | Current Version | Previous Version | Text Only | Print | Product List | Glossary On
Versions: 1 2 3 4 5 6 7 8 9 10 11 12 13 14 15 16 17 18 19
000
FTUS46 KEKA 300126 AAA
TAFCEC
TAF AMD
KCEC 300126Z 3001/3024 34006KT P6SM OVC004
     FM301000 17003KT 4SM BR OVC004
     FM301500 33004KT P6SM BKN008
     FM301800 33010KT P6SM SCT010=

USA.gov is the U.S. government's official web portal to all federal, state and local government web resources and services.